Time;durP1;ratioP1;P1;durP2;ratioP2;P2;SDS_P1;SDS_P2;PMS_P1;PMS_P2;Temp;Humidity;BMP_temperature;BMP_pressure;BME280_temperature;BME280_humidity;BME280_pressure;Samples;Min_cycle;Max_cycle;Signal;HPM_P1;HPM_P2
2022/04/28 00:02:01;;;;;;;4.80;4.40;;;;;;;;;;4995768;28;20185;-83
2022/04/28 00:04:28;;;;;;;5.07;4.50;;;;;;;;;;5012382;28;20213;-83
2022/04/28 00:06:54;;;;;;;5.40;4.77;;;;;;;;;;5011670;28;20183;-83
2022/04/28 00:09:20;;;;;;;6.00;4.93;;;;;;;;;;5011140;28;20207;-82
2022/04/28 00:11:49;;;;;;;14.73;6.53;;;;;;;;;;4995374;28;20733;-82
2022/04/28 00:14:16;;;;;;;18.57;16.33;;;;;;;;;;5011733;28;20187;-84
2022/04/28 00:16:42;;;;;;;21.50;17.67;;;;;;;;;;5012073;28;20176;-82
2022/04/28 00:19:09;;;;;;;9.00;8.10;;;;;;;;;;5013162;28;20199;-82
2022/04/28 00:21:36;;;;;;;10.30;6.53;;;;;;;;;;5031777;28;20844;-83
2022/04/28 00:24:02;;;;;;;9.47;7.30;;;;;;;;;;5002310;28;20269;-83
2022/04/28 00:26:28;;;;;;;8.50;6.93;;;;;;;;;;5002290;28;20281;-83
2022/04/28 00:28:54;;;;;;;8.17;7.33;;;;;;;;;;5002282;28;20230;-83
2022/04/28 00:31:20;;;;;;;8.23;7.43;;;;;;;;;;5002844;28;20221;-83
2022/04/28 00:33:48;;;;;;;8.97;8.07;;;;;;;;;;5002355;28;20819;-83
2022/04/28 00:36:17;;;;;;;10.50;8.60;;;;;;;;;;5018613;28;20187;-82
2022/04/28 00:38:46;;;;;;;9.00;8.10;;;;;;;;;;4986244;28;20221;-83
2022/04/28 00:41:13;;;;;;;10.33;8.43;;;;;;;;;;5002184;28;20175;-83
2022/04/28 00:43:54;;;;;;;11.50;8.93;;;;;;;;;;5002233;28;20227;-83
2022/04/28 00:46:21;;;;;;;9.67;8.63;;;;;;;;;;5022682;28;20462;-83
2022/04/28 00:51:34;;;;;;;9.67;8.63;;;;;;;;;;5022359;28;20236;-83
2022/04/28 00:54:01;;;;;;;9.20;8.20;;;;;;;;;;4995921;28;20688;-82
2022/04/28 00:56:29;;;;;;;8.93;8.03;;;;;;;;;;5003298;28;20277;-82
2022/04/28 00:58:56;;;;;;;9.27;8.30;;;;;;;;;;5000682;28;20207;-83
2022/04/28 01:01:22;;;;;;;8.23;7.43;;;;;;;;;;5017084;28;20198;-82
2022/04/28 01:03:48;;;;;;;7.57;6.87;;;;;;;;;;5017286;28;20181;-83
2022/04/28 01:06:15;;;;;;;7.53;6.73;;;;;;;;;;4997250;28;20210;-83
2022/04/28 01:08:42;;;;;;;7.30;6.60;;;;;;;;;;4997099;28;20191;-83
2022/04/28 01:11:09;;;;;;;7.33;6.63;;;;;;;;;;5013578;28;20183;-83
2022/04/28 01:13:45;;;;;;;8.27;6.50;;;;;;;;;;4997813;28;20210;-82
2022/04/28 01:16:15;;;;;;;7.73;6.47;;;;;;;;;;5003771;28;20270;-81
2022/04/28 01:18:42;;;;;;;8.27;7.00;;;;;;;;;;4997470;28;20209;-83
2022/04/28 01:21:08;;;;;;;7.87;6.97;;;;;;;;;;5018033;28;20191;-83
2022/04/28 01:23:37;;;;;;;7.63;6.60;;;;;;;;;;5008286;28;20666;-83
2022/04/28 01:26:05;;;;;;;6.97;6.27;;;;;;;;;;5007063;28;20238;-80
2022/04/28 01:28:32;;;;;;;7.60;6.90;;;;;;;;;;4998011;28;20237;-83
2022/04/28 01:31:03;;;;;;;6.50;5.90;;;;;;;;;;5000625;28;20195;-82
2022/04/28 01:33:35;;;;;;;7.10;6.40;;;;;;;;;;4997081;28;20179;-82
2022/04/28 01:36:01;;;;;;;6.70;5.67;;;;;;;;;;5013848;28;20262;-82
2022/04/28 01:38:28;;;;;;;6.60;6.00;;;;;;;;;;5013412;28;20300;-82
2022/04/28 01:40:54;;;;;;;6.93;5.93;;;;;;;;;;4991934;28;20195;-82
2022/04/28 01:43:20;;;;;;;7.73;6.97;;;;;;;;;;5013944;28;20210;-83
2022/04/28 01:45:47;;;;;;;7.80;7.00;;;;;;;;;;5013320;28;20357;-82
2022/04/28 01:48:19;;;;;;;7.83;7.03;;;;;;;;;;5013622;28;20578;-83
2022/04/28 01:56:36;;;;;;;9.73;7.50;;;;;;;;;;4997405;28;20191;-82
2022/04/28 01:59:35;;;;;;;8.57;7.70;;;;;;;;;;4985962;28;20199;-83
2022/04/28 02:02:31;;;;;;;8.50;7.67;;;;;;;;;;5001148;28;20207;-82
2022/04/28 02:05:00;;;;;;;8.30;7.47;;;;;;;;;;4997704;28;20207;-82
2022/04/28 02:07:29;;;;;;;8.43;7.63;;;;;;;;;;4981798;28;20270;-82
2022/04/28 02:09:56;;;;;;;8.10;7.30;;;;;;;;;;5013028;28;20176;-83
2022/04/28 02:12:22;;;;;;;8.60;7.53;;;;;;;;;;5012935;28;20187;-83
2022/04/28 02:15:07;;;;;;;8.20;7.40;;;;;;;;;;5013852;28;20179;-82
2022/04/28 02:17:52;;;;;;;8.60;7.80;;;;;;;;;;5013110;28;20207;-83
2022/04/28 02:20:18;;;;;;;7.70;6.90;;;;;;;;;;5012858;28;20171;-83
2022/04/28 02:22:45;;;;;;;8.37;7.57;;;;;;;;;;4997186;28;20187;-82
2022/04/28 02:25:11;;;;;;;7.97;7.17;;;;;;;;;;4996840;28;20684;-83
2022/04/28 02:27:37;;;;;;;8.37;7.23;;;;;;;;;;5012957;28;20290;-82
2022/04/28 02:30:04;;;;;;;8.17;7.37;;;;;;;;;;4996512;28;20228;-82
2022/04/28 02:33:08;;;;;;;8.37;7.57;;;;;;;;;;4980880;28;20175;-83
2022/04/28 02:35:19;;;;;;;8.70;7.80;;;;;;;;;;5001240;28;20179;-80
2022/04/28 02:37:46;;;;;;;8.57;7.70;;;;;;;;;;5001775;28;20289;-82
2022/04/28 02:40:12;;;;;;;7.90;7.20;;;;;;;;;;5001205;28;20184;-82
2022/04/28 02:43:05;;;;;;;9.27;8.37;;;;;;;;;;4994229;28;20195;-82
2022/04/28 02:45:31;;;;;;;9.73;8.73;;;;;;;;;;4984164;28;20202;-82
2022/04/28 02:47:59;;;;;;;10.00;8.90;;;;;;;;;;5017536;28;20195;-83
2022/04/28 02:50:26;;;;;;;9.10;8.20;;;;;;;;;;5016479;28;20180;-82
2022/04/28 02:52:53;;;;;;;9.20;8.30;;;;;;;;;;4983330;28;20176;-82
2022/04/28 02:55:20;;;;;;;9.20;7.80;;;;;;;;;;4978913;28;20671;-83
2022/04/28 02:57:47;;;;;;;9.77;8.37;;;;;;;;;;4984928;28;20211;-83
2022/04/28 03:00:15;;;;;;;9.63;8.63;;;;;;;;;;4981521;28;20667;-84
2022/04/28 03:02:52;;;;;;;9.83;8.17;;;;;;;;;;4992713;28;20218;-81
2022/04/28 03:05:18;;;;;;;9.70;8.70;;;;;;;;;;5013257;28;20807;-83
2022/04/28 03:10:46;;;;;;;9.53;8.33;;;;;;;;;;5018309;28;20179;-83
2022/04/28 03:13:13;;;;;;;9.63;8.63;;;;;;;;;;5013861;28;20183;-82
2022/04/28 03:15:41;;;;;;;11.53;8.87;;;;;;;;;;4977191;28;20214;-83
2022/04/28 03:18:16;;;;;;;10.07;8.97;;;;;;;;;;4982309;28;20670;-82
2022/04/28 03:20:43;;;;;;;10.07;9.07;;;;;;;;;;4996739;28;20904;-83
2022/04/28 03:23:11;;;;;;;9.43;8.53;;;;;;;;;;5015245;28;20554;-82
2022/04/28 03:25:38;;;;;;;9.47;8.57;;;;;;;;;;4998121;28;20222;-82
2022/04/28 03:28:05;;;;;;;9.47;7.97;;;;;;;;;;5024908;28;20225;-83
2022/04/28 03:30:32;;;;;;;9.47;8.37;;;;;;;;;;5001949;28;20202;-82
2022/04/28 03:33:24;;;;;;;9.00;8.10;;;;;;;;;;5002420;28;20651;-83
2022/04/28 03:35:50;;;;;;;9.30;8.37;;;;;;;;;;5015615;28;20194;-83
2022/04/28 03:38:16;;;;;;;9.60;8.60;;;;;;;;;;5013822;28;20246;-82
2022/04/28 03:40:44;;;;;;;10.57;9.47;;;;;;;;;;4978224;28;20192;-83
2022/04/28 03:43:11;;;;;;;9.97;7.90;;;;;;;;;;5009635;28;20286;-83
2022/04/28 03:45:38;;;;;;;9.90;8.50;;;;;;;;;;5012917;28;20257;-83
2022/04/28 03:48:11;;;;;;;10.20;8.37;;;;;;;;;;5012268;28;20249;-82
2022/04/28 03:50:38;;;;;;;10.13;9.03;;;;;;;;;;4996055;28;20213;-83
2022/04/28 03:53:05;;;;;;;9.43;8.43;;;;;;;;;;4995843;28;20730;-83
2022/04/28 03:55:32;;;;;;;12.13;9.83;;;;;;;;;;5010834;28;20306;-81
2022/04/28 03:57:58;;;;;;;13.80;9.87;;;;;;;;;;4994754;28;20207;-83
2022/04/28 04:00:26;;;;;;;10.67;9.07;;;;;;;;;;5011429;28;20190;-83
2022/04/28 04:02:57;;;;;;;11.97;8.63;;;;;;;;;;5010652;28;20187;-83
2022/04/28 04:05:25;;;;;;;10.00;8.97;;;;;;;;;;5011380;28;20257;-83
2022/04/28 04:07:52;;;;;;;9.90;8.90;;;;;;;;;;5011708;28;20218;-83
2022/04/28 04:10:24;;;;;;;10.47;8.63;;;;;;;;;;4979558;28;20183;-83
2022/04/28 04:12:55;;;;;;;12.27;8.60;;;;;;;;;;5010622;28;20663;-82
2022/04/28 04:15:21;;;;;;;10.30;8.90;;;;;;;;;;4994818;28;20183;-83
2022/04/28 04:18:14;;;;;;;9.20;8.30;;;;;;;;;;4995605;28;20203;-81
2022/04/28 04:20:45;;;;;;;9.53;8.53;;;;;;;;;;5013019;28;20321;-79
2022/04/28 04:23:12;;;;;;;10.47;9.37;;;;;;;;;;5014496;28;20220;-78
2022/04/28 04:25:38;;;;;;;10.57;9.47;;;;;;;;;;5013350;28;20617;-77
2022/04/28 04:28:09;;;;;;;10.63;9.63;;;;;;;;;;5014545;28;20290;-77
2022/04/28 04:34:22;;;;;;;11.33;9.90;;;;;;;;;;5011079;28;20210;-76
2022/04/28 04:36:49;;;;;;;12.10;10.80;;;;;;;;;;5011473;28;20182;-75
2022/04/28 04:39:15;;;;;;;12.20;10.60;;;;;;;;;;5011300;28;20207;-80
2022/04/28 04:41:42;;;;;;;12.10;10.80;;;;;;;;;;4996315;28;20262;-78
2022/04/28 04:44:13;;;;;;;11.10;10.00;;;;;;;;;;4980734;28;20536;-76
2022/04/28 04:46:41;;;;;;;11.33;10.23;;;;;;;;;;5006842;28;20258;-76
2022/04/28 04:49:19;;;;;;;13.33;10.23;;;;;;;;;;4991503;28;20191;-77
2022/04/28 04:51:52;;;;;;;11.37;10.20;;;;;;;;;;4974522;28;20207;-77
2022/04/28 04:54:20;;;;;;;11.70;10.50;;;;;;;;;;4977119;28;22416;-76
2022/04/28 04:56:49;;;;;;;14.37;11.10;;;;;;;;;;5010033;28;20283;-76
2022/04/28 04:59:15;;;;;;;13.17;9.80;;;;;;;;;;4993607;28;20217;-76
2022/04/28 05:01:42;;;;;;;11.43;10.33;;;;;;;;;;5010163;28;20639;-76
2022/04/28 05:04:46;;;;;;;13.17;9.83;;;;;;;;;;5002500;28;20265;-76
2022/04/28 05:07:31;;;;;;;11.07;9.93;;;;;;;;;;5010272;28;20203;-77
2022/04/28 05:09:58;;;;;;;11.87;10.50;;;;;;;;;;4977833;28;20184;-76
2022/04/28 05:12:24;;;;;;;12.03;10.80;;;;;;;;;;5028781;28;20642;-76
2022/04/28 05:14:52;;;;;;;11.63;10.43;;;;;;;;;;4999013;28;20187;-80
2022/04/28 05:17:20;;;;;;;11.33;10.23;;;;;;;;;;4998965;28;20241;-79
2022/04/28 05:20:02;;;;;;;11.10;9.97;;;;;;;;;;4981108;28;20194;-80
2022/04/28 05:22:48;;;;;;;10.93;9.87;;;;;;;;;;4996389;28;20520;-79
2022/04/28 05:25:33;;;;;;;11.93;10.47;;;;;;;;;;5012978;28;20655;-78
2022/04/28 05:28:29;;;;;;;11.37;9.97;;;;;;;;;;5014644;28;20200;-79
2022/04/28 05:31:14;;;;;;;10.73;9.57;;;;;;;;;;5016481;28;20175;-79
2022/04/28 05:33:59;;;;;;;13.20;10.23;;;;;;;;;;5015933;28;20708;-79
2022/04/28 05:36:40;;;;;;;10.93;9.47;;;;;;;;;;5020680;28;20179;-79
2022/04/28 05:39:07;;;;;;;11.83;10.63;;;;;;;;;;5017933;28;20245;-79
2022/04/28 05:41:34;;;;;;;11.97;10.73;;;;;;;;;;5017842;28;20230;-79
2022/04/28 05:46:45;;;;;;;12.57;10.17;;;;;;;;;;5015932;28;20278;-79
2022/04/28 05:49:11;;;;;;;11.10;9.73;;;;;;;;;;5000276;28;20207;-79
2022/04/28 05:51:40;;;;;;;11.87;9.93;;;;;;;;;;5015127;28;20175;-80
2022/04/28 05:54:08;;;;;;;11.83;10.57;;;;;;;;;;5015909;28;20237;-79
2022/04/28 05:56:34;;;;;;;11.70;10.50;;;;;;;;;;4998842;28;20278;-79
2022/04/28 05:59:02;;;;;;;14.73;10.50;;;;;;;;;;4981588;28;20203;-80
2022/04/28 06:01:46;;;;;;;14.13;10.40;;;;;;;;;;5014556;28;20180;-80
2022/04/28 06:04:16;;;;;;;13.07;11.00;;;;;;;;;;4998940;28;20186;-79
2022/04/28 06:06:46;;;;;;;12.60;10.63;;;;;;;;;;4998854;28;20179;-80
2022/04/28 06:09:20;;;;;;;12.77;10.67;;;;;;;;;;4998703;28;20202;-80
2022/04/28 06:11:48;;;;;;;11.47;10.17;;;;;;;;;;5015606;28;20282;-80
2022/04/28 06:14:14;;;;;;;11.60;10.40;;;;;;;;;;5015659;28;20209;-79
2022/04/28 06:16:41;;;;;;;13.50;10.90;;;;;;;;;;5016639;28;20175;-80
2022/04/28 06:19:19;;;;;;;13.00;10.60;;;;;;;;;;5014459;28;20209;-80
2022/04/28 06:22:04;;;;;;;10.93;9.83;;;;;;;;;;5014779;28;20194;-80
2022/04/28 06:24:35;;;;;;;10.90;9.80;;;;;;;;;;4993562;28;20215;-79
2022/04/28 06:27:02;;;;;;;11.97;9.80;;;;;;;;;;5006463;28;20226;-80
2022/04/28 06:29:29;;;;;;;10.67;9.67;;;;;;;;;;4990697;28;20218;-80
2022/04/28 06:31:59;;;;;;;11.37;9.83;;;;;;;;;;5011401;28;20180;-79
2022/04/28 06:35:04;;;;;;;12.17;10.90;;;;;;;;;;4995668;28;20219;-80
2022/04/28 06:37:32;;;;;;;12.03;10.13;;;;;;;;;;5018812;28;20238;-80
2022/04/28 06:40:03;;;;;;;11.03;9.47;;;;;;;;;;4995661;28;20207;-80
2022/04/28 06:42:29;;;;;;;10.60;9.60;;;;;;;;;;4996124;28;20205;-79
2022/04/28 06:45:31;;;;;;;11.37;9.90;;;;;;;;;;4972244;28;20731;-80
2022/04/28 06:48:15;;;;;;;12.00;10.77;;;;;;;;;;5011486;28;20750;-78
2022/04/28 06:50:42;;;;;;;10.97;9.87;;;;;;;;;;5005637;28;20210;-77
2022/04/28 06:53:26;;;;;;;10.20;9.20;;;;;;;;;;5008665;28;20259;-80
2022/04/28 06:55:57;;;;;;;10.40;9.40;;;;;;;;;;4997343;28;20252;-79
2022/04/28 06:58:26;;;;;;;10.43;9.13;;;;;;;;;;5012601;28;20745;-79
2022/04/28 07:00:53;;;;;;;10.70;9.60;;;;;;;;;;4994926;28;20191;-79
2022/04/28 07:03:21;;;;;;;10.53;9.20;;;;;;;;;;5010961;28;20187;-77
2022/04/28 07:05:49;;;;;;;10.20;9.10;;;;;;;;;;4972482;28;20247;-78
2022/04/28 07:08:15;;;;;;;9.97;9.07;;;;;;;;;;5010819;28;20210;-76
2022/04/28 07:10:46;;;;;;;9.93;9.03;;;;;;;;;;5011179;28;20271;-76
2022/04/28 07:13:18;;;;;;;9.90;8.90;;;;;;;;;;5004239;28;20631;-76
2022/04/28 07:16:13;;;;;;;9.90;9.00;;;;;;;;;;5023664;28;20258;-76
2022/04/28 07:19:06;;;;;;;9.57;8.67;;;;;;;;;;4992963;28;20951;-76
2022/04/28 07:21:33;;;;;;;9.57;8.67;;;;;;;;;;4994918;28;20187;-77
2022/04/28 07:24:02;;;;;;;11.70;9.83;;;;;;;;;;4977253;28;20210;-77
2022/04/28 07:26:28;;;;;;;10.63;9.63;;;;;;;;;;5012059;28;20318;-79
2022/04/28 07:28:55;;;;;;;11.17;9.20;;;;;;;;;;5008555;28;20814;-77
2022/04/28 07:31:39;;;;;;;10.93;9.83;;;;;;;;;;5024966;28;20639;-76
2022/04/28 07:34:11;;;;;;;10.93;9.83;;;;;;;;;;5010590;28;20559;-76
2022/04/28 07:36:56;;;;;;;10.63;9.53;;;;;;;;;;5011737;28;20183;-82
2022/04/28 07:39:28;;;;;;;10.10;9.20;;;;;;;;;;5006253;28;20199;-81
2022/04/28 07:42:15;;;;;;;10.80;9.70;;;;;;;;;;4986231;28;20266;-80
2022/04/28 07:44:44;;;;;;;14.33;9.80;;;;;;;;;;5002822;28;20206;-78
2022/04/28 07:47:10;;;;;;;11.53;10.43;;;;;;;;;;4979310;28;20201;-78
2022/04/28 07:49:42;;;;;;;11.60;9.57;;;;;;;;;;4994366;28;20192;-79
2022/04/28 07:52:09;;;;;;;11.47;9.80;;;;;;;;;;4992320;28;20164;-78
2022/04/28 07:54:36;;;;;;;11.27;10.20;;;;;;;;;;5009461;28;20194;-78
2022/04/28 07:57:03;;;;;;;11.13;10.00;;;;;;;;;;5012967;28;20207;-79
2022/04/28 07:59:30;;;;;;;11.07;9.97;;;;;;;;;;5027017;28;20203;-79
2022/04/28 08:02:08;;;;;;;10.40;9.40;;;;;;;;;;5012164;28;20190;-79
2022/04/28 08:04:34;;;;;;;10.97;9.70;;;;;;;;;;5014547;28;20233;-79
2022/04/28 08:07:01;;;;;;;10.33;9.43;;;;;;;;;;4997178;28;20699;-79
2022/04/28 08:09:29;;;;;;;11.17;9.77;;;;;;;;;;5016088;28;20214;-80
2022/04/28 08:11:56;;;;;;;10.10;9.20;;;;;;;;;;5014626;28;20611;-78
2022/04/28 08:14:24;;;;;;;10.50;9.40;;;;;;;;;;4996633;28;20184;-78
2022/04/28 08:16:54;;;;;;;10.90;9.17;;;;;;;;;;5018398;28;20211;-78
2022/04/28 08:19:20;;;;;;;9.23;8.13;;;;;;;;;;5012104;28;20242;-78
2022/04/28 08:22:01;;;;;;;8.80;8.00;;;;;;;;;;5014879;28;20211;-79
2022/04/28 08:24:28;;;;;;;10.47;7.83;;;;;;;;;;5000572;28;20190;-78
2022/04/28 08:26:55;;;;;;;10.67;8.90;;;;;;;;;;4983384;28;20210;-79
2022/04/28 08:29:22;;;;;;;8.97;8.17;;;;;;;;;;4997865;28;20218;-79
2022/04/28 08:31:53;;;;;;;9.90;8.90;;;;;;;;;;4993596;28;20194;-78
2022/04/28 08:34:22;;;;;;;9.80;8.80;;;;;;;;;;5000959;28;20175;-79
2022/04/28 08:36:50;;;;;;;8.87;8.07;;;;;;;;;;5013190;28;20215;-79
2022/04/28 08:39:18;;;;;;;11.10;9.00;;;;;;;;;;5010473;28;20681;-79
2022/04/28 08:41:45;;;;;;;9.97;8.50;;;;;;;;;;4988358;28;20222;-79
2022/04/28 08:44:21;;;;;;;12.47;8.87;;;;;;;;;;5020847;28;20182;-80
2022/04/28 08:46:56;;;;;;;10.03;8.87;;;;;;;;;;5001435;28;20673;-81
2022/04/28 08:49:30;;;;;;;10.17;8.40;;;;;;;;;;5003984;28;20203;-81
2022/04/28 08:52:25;;;;;;;9.50;8.57;;;;;;;;;;5005126;28;20247;-81
2022/04/28 08:54:57;;;;;;;8.87;8.07;;;;;;;;;;4988200;28;20221;-83
2022/04/28 08:57:24;;;;;;;7.40;6.43;;;;;;;;;;5016628;28;20191;-80
2022/04/28 08:59:51;;;;;;;8.33;7.20;;;;;;;;;;4999151;28;20270;-78
2022/04/28 09:02:27;;;;;;;8.27;7.47;;;;;;;;;;5015849;28;20225;-78
2022/04/28 09:05:05;;;;;;;8.13;7.33;;;;;;;;;;5014375;28;20205;-79
2022/04/28 09:07:50;;;;;;;8.33;7.10;;;;;;;;;;5014950;28;20196;-78
2022/04/28 09:10:40;;;;;;;7.63;6.87;;;;;;;;;;5005307;28;20225;-78
2022/04/28 09:16:18;;;;;;;6.93;6.27;;;;;;;;;;4996371;28;20219;-78
2022/04/28 09:18:46;;;;;;;6.57;5.87;;;;;;;;;;4999472;28;20215;-79
2022/04/28 09:21:12;;;;;;;6.10;4.97;;;;;;;;;;4999331;28;20195;-79
2022/04/28 09:23:39;;;;;;;6.20;5.70;;;;;;;;;;5016106;28;20183;-79
2022/04/28 09:26:07;;;;;;;6.50;5.77;;;;;;;;;;5001077;28;20223;-79
2022/04/28 09:28:34;;;;;;;6.10;5.47;;;;;;;;;;5014665;28;20207;-79
2022/04/28 09:31:00;;;;;;;7.93;5.53;;;;;;;;;;5027172;28;20214;-79
2022/04/28 09:33:47;;;;;;;6.33;5.57;;;;;;;;;;5014297;28;20266;-79
2022/04/28 09:36:18;;;;;;;6.10;5.50;;;;;;;;;;5014764;28;20265;-79
2022/04/28 09:38:58;;;;;;;6.67;5.00;;;;;;;;;;4995697;28;20210;-80
2022/04/28 09:44:20;;;;;;;7.40;4.60;;;;;;;;;;5033613;28;20240;-79
2022/04/28 09:46:54;;;;;;;6.47;5.80;;;;;;;;;;4992070;28;20180;-80
2022/04/28 09:49:23;;;;;;;5.10;4.60;;;;;;;;;;4983674;28;20647;-79
2022/04/28 09:52:11;;;;;;;5.03;3.87;;;;;;;;;;5002420;28;20187;-79
2022/04/28 09:55:04;;;;;;;3.87;3.47;;;;;;;;;;4986359;28;20194;-79
2022/04/28 09:57:45;;;;;;;3.53;3.20;;;;;;;;;;5015533;28;20695;-80
2022/04/28 10:00:13;;;;;;;5.60;3.27;;;;;;;;;;5017094;28;20714;-80
2022/04/28 10:02:54;;;;;;;3.00;2.63;;;;;;;;;;5015926;28;20559;-80
2022/04/28 10:05:21;;;;;;;3.03;2.77;;;;;;;;;;5015979;28;20207;-79
2022/04/28 10:07:57;;;;;;;2.70;2.47;;;;;;;;;;4998133;28;20293;-80
2022/04/28 10:10:26;;;;;;;4.27;3.00;;;;;;;;;;5032049;28;20237;-80
2022/04/28 10:12:53;;;;;;;3.07;2.77;;;;;;;;;;5015617;28;20183;-80
2022/04/28 10:15:43;;;;;;;3.03;2.60;;;;;;;;;;5015958;28;20277;-79
2022/04/28 10:18:10;;;;;;;5.63;3.53;;;;;;;;;;4998161;28;20249;-80
2022/04/28 10:20:39;;;;;;;5.10;3.00;;;;;;;;;;5010619;28;20455;-79
2022/04/28 10:23:08;;;;;;;5.37;3.00;;;;;;;;;;5015679;28;20222;-80
2022/04/28 10:34:30;;;;;;;4.87;2.50;;;;;;;;;;5012125;28;20268;-79
2022/04/28 10:37:03;;;;;;;3.37;2.90;;;;;;;;;;5016685;28;20695;-81
2022/04/28 10:39:38;;;;;;;4.77;3.10;;;;;;;;;;5013494;28;20203;-83
2022/04/28 10:42:37;;;;;;;3.40;2.70;;;;;;;;;;5015470;28;20178;-77
2022/04/28 10:45:07;;;;;;;4.23;2.67;;;;;;;;;;4982121;28;20219;-79
2022/04/28 10:47:36;;;;;;;5.70;2.77;;;;;;;;;;5016573;28;20245;-80
2022/04/28 10:50:23;;;;;;;3.13;2.83;;;;;;;;;;5016204;28;20270;-79
2022/04/28 10:52:56;;;;;;;3.43;2.93;;;;;;;;;;5010541;28;20195;-80
2022/04/28 10:55:25;;;;;;;2.87;2.57;;;;;;;;;;5024792;28;20229;-81
2022/04/28 10:57:52;;;;;;;3.57;2.70;;;;;;;;;;5007519;28;20199;-81
2022/04/28 11:00:34;;;;;;;5.47;3.00;;;;;;;;;;5005642;28;20184;-81
2022/04/28 11:03:00;;;;;;;4.03;2.60;;;;;;;;;;5013535;28;20211;-83
2022/04/28 11:05:32;;;;;;;4.43;2.83;;;;;;;;;;4991443;28;20274;-82
2022/04/28 11:08:01;;;;;;;3.23;2.93;;;;;;;;;;5007463;28;20203;-80
2022/04/28 11:10:28;;;;;;;4.23;3.23;;;;;;;;;;5006228;28;20187;-81
2022/04/28 11:12:54;;;;;;;3.23;2.73;;;;;;;;;;5009120;28;20286;-81
2022/04/28 11:15:21;;;;;;;4.57;2.80;;;;;;;;;;5012739;28;20199;-81
2022/04/28 11:17:47;;;;;;;4.53;2.60;;;;;;;;;;5023342;28;20297;-81
2022/04/28 11:20:15;;;;;;;3.23;2.93;;;;;;;;;;5010847;28;20195;-81
2022/04/28 11:22:53;;;;;;;3.07;2.77;;;;;;;;;;5003461;28;20186;-81
2022/04/28 11:25:20;;;;;;;4.07;2.50;;;;;;;;;;5010299;28;20226;-80
2022/04/28 11:27:49;;;;;;;2.70;2.50;;;;;;;;;;4998453;28;20322;-79
2022/04/28 11:30:22;;;;;;;3.10;2.80;;;;;;;;;;5008631;28;20207;-79
2022/04/28 11:32:52;;;;;;;3.27;2.90;;;;;;;;;;5008658;28;20243;-79
2022/04/28 11:35:18;;;;;;;3.40;3.10;;;;;;;;;;5009242;28;20216;-79
2022/04/28 11:37:45;;;;;;;5.97;3.50;;;;;;;;;;5023174;28;20682;-80
2022/04/28 11:40:16;;;;;;;4.70;2.50;;;;;;;;;;5002014;28;20183;-79
2022/04/28 11:42:43;;;;;;;3.90;2.73;;;;;;;;;;5009550;28;20227;-81
2022/04/28 11:45:10;;;;;;;2.50;2.30;;;;;;;;;;5011548;28;20683;-83
2022/04/28 11:47:46;;;;;;;3.20;2.37;;;;;;;;;;4988219;28;20460;-87
2022/04/28 11:50:23;;;;;;;4.90;3.10;;;;;;;;;;5002163;28;20187;-80
2022/04/28 11:53:05;;;;;;;3.27;2.60;;;;;;;;;;5001955;28;20176;-81
2022/04/28 11:55:33;;;;;;;2.70;2.43;;;;;;;;;;5003556;28;20281;-82
2022/04/28 11:58:00;;;;;;;2.97;2.60;;;;;;;;;;5002610;28;20965;-84
2022/04/28 12:00:27;;;;;;;2.80;2.60;;;;;;;;;;5003894;28;20186;-79
2022/04/28 12:02:54;;;;;;;3.43;2.70;;;;;;;;;;5006244;28;20237;-82
2022/04/28 12:05:22;;;;;;;3.63;2.80;;;;;;;;;;4985977;28;20302;-81
2022/04/28 12:07:52;;;;;;;3.70;3.20;;;;;;;;;;5008965;28;20211;-82
2022/04/28 12:15:56;;;;;;;3.37;2.30;;;;;;;;;;5001296;28;20548;-81
2022/04/28 12:21:32;;;;;;;3.20;2.57;;;;;;;;;;5010804;28;20596;-81
2022/04/28 12:24:22;;;;;;;3.37;2.50;;;;;;;;;;4992398;28;20282;-81
2022/04/28 12:26:49;;;;;;;3.10;2.80;;;;;;;;;;4995197;28;20237;-81
2022/04/28 12:29:17;;;;;;;2.40;2.20;;;;;;;;;;5010994;28;20215;-81
2022/04/28 12:31:43;;;;;;;3.83;2.40;;;;;;;;;;5009047;28;20243;-81
2022/04/28 12:34:11;;;;;;;4.43;2.20;;;;;;;;;;5015128;28;20222;-80
2022/04/28 12:36:53;;;;;;;3.27;2.57;;;;;;;;;;5013398;28;20198;-81
2022/04/28 12:39:21;;;;;;;2.53;2.30;;;;;;;;;;5012458;28;20197;-81
2022/04/28 12:41:48;;;;;;;3.00;2.27;;;;;;;;;;5006308;28;20710;-81
2022/04/28 12:44:16;;;;;;;2.90;2.63;;;;;;;;;;5006206;28;20182;-80
2022/04/28 12:46:45;;;;;;;3.17;2.73;;;;;;;;;;5012323;28;20740;-80
2022/04/28 12:49:13;;;;;;;2.83;2.30;;;;;;;;;;5011203;28;20215;-80
2022/04/28 12:51:46;;;;;;;3.87;2.40;;;;;;;;;;5008548;28;20630;-80
2022/04/28 12:54:12;;;;;;;3.43;2.17;;;;;;;;;;5017277;28;20633;-80
2022/04/28 12:56:39;;;;;;;2.40;2.20;;;;;;;;;;5007191;28;20199;-80
2022/04/28 12:59:06;;;;;;;2.50;2.30;;;;;;;;;;5020638;28;20205;-80
2022/04/28 13:01:33;;;;;;;5.17;2.80;;;;;;;;;;5003048;28;20217;-81
2022/04/28 13:04:05;;;;;;;3.13;2.63;;;;;;;;;;5004250;28;20190;-81
2022/04/28 13:06:32;;;;;;;3.10;2.33;;;;;;;;;;5009185;28;20220;-81
2022/04/28 13:09:00;;;;;;;2.27;2.13;;;;;;;;;;4998443;28;20243;-81
2022/04/28 13:11:28;;;;;;;2.70;2.50;;;;;;;;;;5011995;28;20214;-80
2022/04/28 13:13:54;;;;;;;2.90;2.60;;;;;;;;;;5011955;28;20189;-81
2022/04/28 13:16:21;;;;;;;2.67;2.47;;;;;;;;;;5012300;28;20189;-80
2022/04/28 13:18:47;;;;;;;2.50;2.30;;;;;;;;;;5003274;28;20211;-80
2022/04/28 13:21:15;;;;;;;2.90;2.30;;;;;;;;;;5017600;28;20206;-80
2022/04/28 13:23:42;;;;;;;2.43;2.00;;;;;;;;;;5019430;28;20278;-80
2022/04/28 13:26:09;;;;;;;6.07;5.47;;;;;;;;;;5009800;28;20215;-80
2022/04/28 13:28:35;;;;;;;3.23;2.93;;;;;;;;;;5017722;28;20739;-81
2022/04/28 13:31:02;;;;;;;2.87;2.40;;;;;;;;;;5037837;28;20215;-80
2022/04/28 13:33:28;;;;;;;2.40;2.20;;;;;;;;;;5018717;28;20188;-80
2022/04/28 13:35:54;;;;;;;2.93;2.40;;;;;;;;;;5035320;28;20180;-80
2022/04/28 13:38:21;;;;;;;2.60;2.37;;;;;;;;;;5013549;28;20306;-81
2022/04/28 13:40:47;;;;;;;2.40;2.20;;;;;;;;;;5006937;28;20530;-81
2022/04/28 13:43:13;;;;;;;2.50;2.30;;;;;;;;;;5009152;28;20192;-80
2022/04/28 13:45:39;;;;;;;2.77;2.30;;;;;;;;;;5011657;28;20255;-81
2022/04/28 13:48:06;;;;;;;4.27;2.23;;;;;;;;;;5012837;28;20718;-81
2022/04/28 13:50:32;;;;;;;2.23;2.03;;;;;;;;;;5014208;28;20261;-81
2022/04/28 13:52:58;;;;;;;3.20;2.83;;;;;;;;;;5016352;28;20185;-80
2022/04/28 13:55:24;;;;;;;3.77;3.33;;;;;;;;;;5011873;28;20260;-81
2022/04/28 13:57:51;;;;;;;2.60;2.40;;;;;;;;;;5012015;28;20214;-81
2022/04/28 14:00:17;;;;;;;3.40;2.30;;;;;;;;;;5014518;28;20219;-82
2022/04/28 14:02:44;;;;;;;2.87;2.00;;;;;;;;;;5027781;28;20175;-81
2022/04/28 14:05:11;;;;;;;3.10;2.20;;;;;;;;;;5005129;28;20208;-81
2022/04/28 14:07:38;;;;;;;2.70;2.00;;;;;;;;;;5012847;28;20595;-81
2022/04/28 14:10:05;;;;;;;2.60;2.37;;;;;;;;;;5000406;28;20192;-80
2022/04/28 14:12:32;;;;;;;2.53;2.20;;;;;;;;;;5003517;28;20302;-80
2022/04/28 14:14:58;;;;;;;2.57;2.20;;;;;;;;;;5016231;28;20201;-81
2022/04/28 14:17:24;;;;;;;4.30;2.07;;;;;;;;;;5012933;28;20593;-81
2022/04/28 14:19:52;;;;;;;3.33;2.23;;;;;;;;;;5013537;28;20263;-81
2022/04/28 14:22:18;;;;;;;6.07;2.70;;;;;;;;;;5013308;28;20190;-81
2022/04/28 14:24:45;;;;;;;3.30;2.43;;;;;;;;;;5014016;28;20172;-81
2022/04/28 14:27:12;;;;;;;2.43;2.10;;;;;;;;;;5011496;28;20175;-81
2022/04/28 14:29:39;;;;;;;2.60;2.40;;;;;;;;;;5010564;28;20283;-81
2022/04/28 14:32:05;;;;;;;3.07;2.60;;;;;;;;;;5010150;28;20195;-81
2022/04/28 14:34:32;;;;;;;2.27;2.00;;;;;;;;;;5013782;28;20691;-81
2022/04/28 14:36:58;;;;;;;4.40;1.97;;;;;;;;;;5007914;28;20200;-81
2022/04/28 14:39:24;;;;;;;2.43;2.23;;;;;;;;;;5007655;28;20296;-81
2022/04/28 14:41:51;;;;;;;3.37;2.20;;;;;;;;;;5003034;28;20207;-81
2022/04/28 14:44:18;;;;;;;2.50;2.30;;;;;;;;;;5010916;28;20181;-82
2022/04/28 14:46:44;;;;;;;4.63;2.10;;;;;;;;;;5007703;28;20216;-81
2022/04/28 14:54:48;;;;;;;5.53;2.60;;;;;;;;;;5011479;28;20203;-81
2022/04/28 14:57:15;;;;;;;3.70;2.40;;;;;;;;;;5025888;28;20191;-81
2022/04/28 14:59:41;;;;;;;5.17;4.30;;;;;;;;;;5014228;28;20171;-81
2022/04/28 15:02:08;;;;;;;3.07;2.80;;;;;;;;;;5017915;28;20283;-81
2022/04/28 15:04:34;;;;;;;4.43;3.63;;;;;;;;;;5019712;28;20183;-81
2022/04/28 15:07:00;;;;;;;5.20;4.67;;;;;;;;;;5009679;28;20191;-81
2022/04/28 15:09:27;;;;;;;3.30;2.90;;;;;;;;;;5018331;28;20577;-81
2022/04/28 15:11:53;;;;;;;4.70;2.57;;;;;;;;;;5011780;28;20258;-81
2022/04/28 15:14:19;;;;;;;5.73;3.40;;;;;;;;;;4999501;28;20198;-81
2022/04/28 15:16:46;;;;;;;4.10;3.30;;;;;;;;;;5012770;28;20289;-81
2022/04/28 15:19:12;;;;;;;2.60;2.30;;;;;;;;;;5008601;28;20209;-81
2022/04/28 15:21:40;;;;;;;2.50;2.30;;;;;;;;;;5022067;28;20651;-81
2022/04/28 15:24:08;;;;;;;3.20;2.50;;;;;;;;;;4997804;28;20193;-81
2022/04/28 15:26:34;;;;;;;2.50;2.10;;;;;;;;;;5011810;28;20559;-81
2022/04/28 15:29:01;;;;;;;3.77;2.40;;;;;;;;;;5012873;28;20627;-81
2022/04/28 15:31:27;;;;;;;2.77;2.13;;;;;;;;;;5016149;28;20190;-81
2022/04/28 15:33:53;;;;;;;3.20;2.40;;;;;;;;;;5018901;28;20187;-81
2022/04/28 15:36:19;;;;;;;3.50;3.17;;;;;;;;;;5026769;28;20276;-81
2022/04/28 15:38:45;;;;;;;3.77;2.40;;;;;;;;;;5005419;28;20210;-82
2022/04/28 15:41:12;;;;;;;3.33;2.40;;;;;;;;;;5006501;28;20591;-81
2022/04/28 15:43:38;;;;;;;3.50;2.40;;;;;;;;;;5013873;28;20274;-81
2022/04/28 15:46:04;;;;;;;3.00;2.40;;;;;;;;;;5013995;28;20223;-81